sensor_id;sensor_type;location;lat;lon;timestamp;P1;durP1;ratioP1;P2;durP2;ratioP2
46983;SDS011;34732;52.112;9.366;2022-12-07T08:45:44;12.45;;;2.47;;
46983;SDS011;34732;52.112;9.366;2022-12-07T08:49:11;6.57;;;1.65;;
46983;SDS011;34732;52.112;9.366;2022-12-07T08:52:43;3.88;;;1.40;;
46983;SDS011;34732;52.112;9.366;2022-12-07T08:56:07;4.93;;;1.60;;
46983;SDS011;34732;52.112;9.366;2022-12-07T08:59:30;2.90;;;1.15;;
46983;SDS011;34732;52.112;9.366;2022-12-07T09:02:53;4.43;;;1.55;;
46983;SDS011;34732;52.112;9.366;2022-12-07T09:06:16;4.78;;;1.40;;
46983;SDS011;34732;52.112;9.366;2022-12-07T09:09:44;3.22;;;1.27;;
46983;SDS011;34732;52.112;9.366;2022-12-07T09:13:12;3.15;;;1.10;;
46983;SDS011;34732;52.112;9.366;2022-12-07T09:16:36;4.63;;;1.10;;
46983;SDS011;34732;52.112;9.366;2022-12-07T09:19:57;5.57;;;1.00;;
46983;SDS011;34732;52.112;9.366;2022-12-07T09:23:26;5.88;;;0.98;;
46983;SDS011;34732;52.112;9.366;2022-12-07T09:26:54;3.05;;;0.88;;
46983;SDS011;34732;52.112;9.366;2022-12-07T09:30:16;2.63;;;0.90;;
46983;SDS011;34732;52.112;9.366;2022-12-07T09:33:37;5.75;;;1.10;;
46983;SDS011;34732;52.112;9.366;2022-12-07T09:37:04;3.72;;;0.90;;
46983;SDS011;34732;52.112;9.366;2022-12-07T09:40:30;2.83;;;0.70;;
46983;SDS011;34732;52.112;9.366;2022-12-07T09:43:57;1.70;;;0.60;;
46983;SDS011;34732;52.112;9.366;2022-12-07T09:47:25;3.75;;;1.15;;
46983;SDS011;34732;52.112;9.366;2022-12-07T09:50:51;2.28;;;0.73;;
46983;SDS011;34732;52.112;9.366;2022-12-07T09:54:17;1.92;;;0.75;;
46983;SDS011;34732;52.112;9.366;2022-12-07T09:57:41;3.10;;;0.85;;
46983;SDS011;34732;52.112;9.366;2022-12-07T10:04:36;6.28;;;1.00;;
46983;SDS011;34732;52.112;9.366;2022-12-07T10:07:58;4.93;;;1.00;;
46983;SDS011;34732;52.112;9.366;2022-12-07T10:11:20;1.65;;;0.70;;
46983;SDS011;34732;52.112;9.366;2022-12-07T10:15:15;3.40;;;0.70;;
46983;SDS011;34732;52.112;9.366;2022-12-07T10:18:32;2.50;;;0.80;;
46983;SDS011;34732;52.112;9.366;2022-12-07T10:25:33;1.85;;;0.70;;
46983;SDS011;34732;52.112;9.366;2022-12-07T10:28:58;1.45;;;0.63;;
46983;SDS011;34732;52.112;9.366;2022-12-07T10:32:29;2.63;;;0.63;;
46983;SDS011;34732;52.112;9.366;2022-12-07T10:35:56;1.95;;;0.80;;
46983;SDS011;34732;52.112;9.366;2022-12-07T10:39:20;2.42;;;0.85;;
46983;SDS011;34732;52.112;9.366;2022-12-07T10:42:45;2.65;;;0.75;;
46983;SDS011;34732;52.112;9.366;2022-12-07T10:46:50;3.58;;;0.70;;
46983;SDS011;34732;52.112;9.366;2022-12-07T10:50:27;1.83;;;0.70;;
46983;SDS011;34732;52.112;9.366;2022-12-07T11:05:27;1.92;;;1.05;;
46983;SDS011;34732;52.112;9.366;2022-12-07T11:20:05;1.20;;;0.60;;
46983;SDS011;34732;52.112;9.366;2022-12-07T11:23:52;2.28;;;0.90;;
46983;SDS011;34732;52.112;9.366;2022-12-07T11:38:07;3.22;;;0.60;;
46983;SDS011;34732;52.112;9.366;2022-12-07T11:41:34;2.40;;;0.63;;
46983;SDS011;34732;52.112;9.366;2022-12-07T11:45:23;5.57;;;0.70;;
46983;SDS011;34732;52.112;9.366;2022-12-07T11:48:50;1.33;;;0.50;;
46983;SDS011;34732;52.112;9.366;2022-12-07T12:03:12;4.18;;;0.98;;
46983;SDS011;34732;52.112;9.366;2022-12-07T12:06:40;3.15;;;0.57;;
46983;SDS011;34732;52.112;9.366;2022-12-07T12:21:06;3.50;;;0.80;;
46983;SDS011;34732;52.112;9.366;2022-12-07T12:24:32;2.72;;;0.77;;
46983;SDS011;34732;52.112;9.366;2022-12-07T12:27:59;1.98;;;0.75;;
46983;SDS011;34732;52.112;9.366;2022-12-07T12:41:56;2.58;;;0.70;;
46983;SDS011;34732;52.112;9.366;2022-12-07T12:48:45;1.80;;;0.80;;
46983;SDS011;34732;52.112;9.366;2022-12-07T13:02:47;4.10;;;0.90;;
46983;SDS011;34732;52.112;9.366;2022-12-07T13:09:47;5.68;;;0.93;;
46983;SDS011;34732;52.112;9.366;2022-12-07T13:16:38;2.33;;;0.90;;
46983;SDS011;34732;52.112;9.366;2022-12-07T13:20:05;2.83;;;1.00;;
46983;SDS011;34732;52.112;9.366;2022-12-07T13:27:10;3.25;;;1.48;;
46983;SDS011;34732;52.112;9.366;2022-12-07T13:30:35;6.55;;;1.85;;
46983;SDS011;34732;52.112;9.366;2022-12-07T13:37:51;6.43;;;2.45;;
46983;SDS011;34732;52.112;9.366;2022-12-07T13:41:20;5.95;;;2.40;;
46983;SDS011;34732;52.112;9.366;2022-12-07T13:44:49;5.53;;;3.03;;
46983;SDS011;34732;52.112;9.366;2022-12-07T13:48:21;8.00;;;3.10;;
46983;SDS011;34732;52.112;9.366;2022-12-07T13:51:46;5.20;;;2.78;;
46983;SDS011;34732;52.112;9.366;2022-12-07T13:55:16;8.98;;;3.78;;
46983;SDS011;34732;52.112;9.366;2022-12-07T13:58:37;12.65;;;4.60;;
46983;SDS011;34732;52.112;9.366;2022-12-07T14:01:59;9.82;;;5.15;;
46983;SDS011;34732;52.112;9.366;2022-12-07T14:05:24;12.73;;;5.47;;
46983;SDS011;34732;52.112;9.366;2022-12-07T14:08:49;11.00;;;6.00;;
46983;SDS011;34732;52.112;9.366;2022-12-07T14:12:11;25.33;;;11.60;;
46983;SDS011;34732;52.112;9.366;2022-12-07T14:15:37;38.80;;;20.90;;
46983;SDS011;34732;52.112;9.366;2022-12-07T14:19:03;39.70;;;22.48;;
46983;SDS011;34732;52.112;9.366;2022-12-07T14:25:53;37.72;;;20.02;;
46983;SDS011;34732;52.112;9.366;2022-12-07T14:32:51;38.00;;;19.50;;
46983;SDS011;34732;52.112;9.366;2022-12-07T14:36:14;37.17;;;18.92;;
46983;SDS011;34732;52.112;9.366;2022-12-07T14:39:35;32.90;;;17.42;;
46983;SDS011;34732;52.112;9.366;2022-12-07T14:43:05;32.50;;;17.50;;
46983;SDS011;34732;52.112;9.366;2022-12-07T14:46:31;40.83;;;17.60;;
46983;SDS011;34732;52.112;9.366;2022-12-07T14:49:59;27.30;;;15.88;;
46983;SDS011;34732;52.112;9.366;2022-12-07T14:53:31;30.15;;;16.30;;
46983;SDS011;34732;52.112;9.366;2022-12-07T14:56:57;30.27;;;15.35;;
46983;SDS011;34732;52.112;9.366;2022-12-07T15:00:22;29.92;;;16.08;;
46983;SDS011;34732;52.112;9.366;2022-12-07T15:03:47;32.03;;;15.82;;
46983;SDS011;34732;52.112;9.366;2022-12-07T15:07:10;28.30;;;14.10;;
46983;SDS011;34732;52.112;9.366;2022-12-07T15:10:43;27.20;;;13.43;;
46983;SDS011;34732;52.112;9.366;2022-12-07T15:14:04;26.08;;;13.63;;
46983;SDS011;34732;52.112;9.366;2022-12-07T15:17:28;24.25;;;13.20;;
46983;SDS011;34732;52.112;9.366;2022-12-07T15:20:52;25.10;;;13.75;;
46983;SDS011;34732;52.112;9.366;2022-12-07T15:24:15;23.85;;;12.85;;
46983;SDS011;34732;52.112;9.366;2022-12-07T15:27:38;20.42;;;11.43;;
46983;SDS011;34732;52.112;9.366;2022-12-07T15:31:02;21.88;;;10.80;;
46983;SDS011;34732;52.112;9.366;2022-12-07T15:34:24;22.58;;;11.70;;
46983;SDS011;34732;52.112;9.366;2022-12-07T15:37:48;17.70;;;10.55;;
46983;SDS011;34732;52.112;9.366;2022-12-07T15:41:11;25.02;;;11.85;;
46983;SDS011;34732;52.112;9.366;2022-12-07T15:44:35;20.67;;;10.43;;
46983;SDS011;34732;52.112;9.366;2022-12-07T15:48:15;23.63;;;10.98;;
46983;SDS011;34732;52.112;9.366;2022-12-07T15:51:36;18.70;;;11.05;;
46983;SDS011;34732;52.112;9.366;2022-12-07T15:55:00;19.73;;;10.38;;
46983;SDS011;34732;52.112;9.366;2022-12-07T15:58:24;20.40;;;10.35;;
46983;SDS011;34732;52.112;9.366;2022-12-07T16:01:50;19.95;;;10.07;;
46983;SDS011;34732;52.112;9.366;2022-12-07T16:05:14;19.42;;;10.55;;
46983;SDS011;34732;52.112;9.366;2022-12-07T16:08:41;18.55;;;9.70;;
46983;SDS011;34732;52.112;9.366;2022-12-07T16:12:12;14.93;;;8.93;;
46983;SDS011;34732;52.112;9.366;2022-12-07T16:15:41;16.50;;;8.55;;
46983;SDS011;34732;52.112;9.366;2022-12-07T16:19:06;15.50;;;8.40;;
46983;SDS011;34732;52.112;9.366;2022-12-07T16:22:32;16.60;;;8.55;;
46983;SDS011;34732;52.112;9.366;2022-12-07T16:26:02;16.58;;;8.50;;
46983;SDS011;34732;52.112;9.366;2022-12-07T16:29:35;16.15;;;8.38;;
46983;SDS011;34732;52.112;9.366;2022-12-07T16:32:58;17.05;;;8.77;;
46983;SDS011;34732;52.112;9.366;2022-12-07T16:36:22;14.38;;;7.90;;
46983;SDS011;34732;52.112;9.366;2022-12-07T16:39:48;19.35;;;8.63;;
46983;SDS011;34732;52.112;9.366;2022-12-07T16:43:10;15.57;;;7.85;;
46983;SDS011;34732;52.112;9.366;2022-12-07T16:46:36;17.65;;;8.05;;
46983;SDS011;34732;52.112;9.366;2022-12-07T16:49:57;14.40;;;7.55;;
46983;SDS011;34732;52.112;9.366;2022-12-07T16:53:19;15.15;;;7.35;;
46983;SDS011;34732;52.112;9.366;2022-12-07T16:56:41;16.15;;;7.35;;
46983;SDS011;34732;52.112;9.366;2022-12-07T17:00:07;13.65;;;7.68;;
46983;SDS011;34732;52.112;9.366;2022-12-07T17:03:36;14.63;;;7.72;;
46983;SDS011;34732;52.112;9.366;2022-12-07T17:07:04;14.18;;;7.80;;
46983;SDS011;34732;52.112;9.366;2022-12-07T17:10:33;16.60;;;7.25;;
46983;SDS011;34732;52.112;9.366;2022-12-07T17:14:00;14.45;;;6.68;;
46983;SDS011;34732;52.112;9.366;2022-12-07T17:17:44;12.40;;;6.65;;
46983;SDS011;34732;52.112;9.366;2022-12-07T17:21:08;13.60;;;6.45;;
46983;SDS011;34732;52.112;9.366;2022-12-07T17:24:37;13.07;;;6.60;;
46983;SDS011;34732;52.112;9.366;2022-12-07T17:28:03;11.73;;;6.50;;
46983;SDS011;34732;52.112;9.366;2022-12-07T17:31:29;13.77;;;6.40;;
46983;SDS011;34732;52.112;9.366;2022-12-07T17:34:50;10.43;;;5.80;;
46983;SDS011;34732;52.112;9.366;2022-12-07T17:38:16;12.32;;;5.97;;
46983;SDS011;34732;52.112;9.366;2022-12-07T17:41:37;11.50;;;6.20;;
46983;SDS011;34732;52.112;9.366;2022-12-07T17:45:17;11.23;;;6.00;;
46983;SDS011;34732;52.112;9.366;2022-12-07T17:48:43;14.82;;;6.30;;
46983;SDS011;34732;52.112;9.366;2022-12-07T17:52:04;10.82;;;5.78;;
46983;SDS011;34732;52.112;9.366;2022-12-07T17:55:44;10.48;;;5.60;;
46983;SDS011;34732;52.112;9.366;2022-12-07T17:59:10;8.23;;;4.80;;
46983;SDS011;34732;52.112;9.366;2022-12-07T18:02:31;11.90;;;5.32;;
46983;SDS011;34732;52.112;9.366;2022-12-07T18:05:55;11.73;;;5.20;;
46983;SDS011;34732;52.112;9.366;2022-12-07T18:09:17;12.70;;;5.30;;
46983;SDS011;34732;52.112;9.366;2022-12-07T18:12:39;12.55;;;5.18;;
46983;SDS011;34732;52.112;9.366;2022-12-07T18:16:04;9.88;;;4.70;;
46983;SDS011;34732;52.112;9.366;2022-12-07T18:19:29;10.35;;;5.13;;
46983;SDS011;34732;52.112;9.366;2022-12-07T18:22:51;11.43;;;4.75;;
46983;SDS011;34732;52.112;9.366;2022-12-07T18:26:12;9.75;;;4.38;;
46983;SDS011;34732;52.112;9.366;2022-12-07T18:29:36;8.30;;;4.85;;
46983;SDS011;34732;52.112;9.366;2022-12-07T18:33:00;10.85;;;5.25;;
46983;SDS011;34732;52.112;9.366;2022-12-07T18:36:23;7.72;;;4.03;;
46983;SDS011;34732;52.112;9.366;2022-12-07T18:39:44;6.97;;;3.85;;
46983;SDS011;34732;52.112;9.366;2022-12-07T18:43:06;8.27;;;4.68;;
46983;SDS011;34732;52.112;9.366;2022-12-07T18:46:32;8.50;;;4.63;;
46983;SDS011;34732;52.112;9.366;2022-12-07T18:49:56;6.63;;;3.85;;
46983;SDS011;34732;52.112;9.366;2022-12-07T18:53:24;8.02;;;4.00;;
46983;SDS011;34732;52.112;9.366;2022-12-07T18:56:48;7.78;;;3.75;;
46983;SDS011;34732;52.112;9.366;2022-12-07T19:00:12;8.80;;;3.97;;
46983;SDS011;34732;52.112;9.366;2022-12-07T19:03:33;8.07;;;4.10;;
46983;SDS011;34732;52.112;9.366;2022-12-07T19:06:58;6.13;;;2.50;;
46983;SDS011;34732;52.112;9.366;2022-12-07T19:10:24;6.07;;;2.50;;
46983;SDS011;34732;52.112;9.366;2022-12-07T19:13:45;5.78;;;2.53;;
46983;SDS011;34732;52.112;9.366;2022-12-07T19:17:10;5.20;;;2.53;;
46983;SDS011;34732;52.112;9.366;2022-12-07T19:20:34;3.97;;;2.10;;
46983;SDS011;34732;52.112;9.366;2022-12-07T19:24:01;5.70;;;2.30;;
46983;SDS011;34732;52.112;9.366;2022-12-07T19:31:38;6.95;;;3.03;;
46983;SDS011;34732;52.112;9.366;2022-12-07T19:35:01;10.38;;;2.90;;
